EBJ weather

Esbjerg Airport
Esbjerg, South Denmark, Denmark

Public forecast

Using degrees Celsius for public forecast. Weather courtesy of forecast.io.

METAR (pilot weather report)

Retrieved 2019/05/20 18:20 UTC (0 seconds ago):

EKEB 201820Z AUTO 35007KT 9999 NCD 19/12 Q1007

TAF (pilot weather forecast)

Forecast is more than 12 hours old.

Retrieved 2015/09/18 18:00 UTC (4 years ago):

TAF EKEB 181707Z 1818/1822 24008KT 9999 SCT025 TEMPO 1818/1820 -SHRA SCT020CB